createdAt,value
2022-10-11T00:02:06.154Z,14.79
2022-10-11T00:04:54.143Z,14.74
2022-10-11T00:07:44.419Z,14.72
2022-10-11T00:13:14.075Z,14.73
2022-10-11T00:16:05.399Z,14.65
2022-10-11T00:18:55.679Z,14.71
2022-10-11T00:21:45.260Z,14.68
2022-10-11T00:24:33.628Z,14.72
2022-10-11T00:30:22.981Z,14.73
2022-10-11T00:36:02.358Z,14.76
2022-10-11T00:41:34.054Z,14.73
2022-10-11T00:47:12.007Z,14.78
2022-10-11T00:50:02.884Z,14.73
2022-10-11T00:55:45.488Z,14.79
2022-10-11T01:01:16.451Z,14.70
2022-10-11T01:04:05.423Z,14.68
2022-10-11T01:06:54.372Z,14.74
2022-10-11T01:15:32.011Z,14.84
2022-10-11T01:18:23.100Z,14.78
2022-10-11T01:24:19.984Z,14.81
2022-10-11T01:27:32.533Z,14.77
2022-10-11T01:33:27.171Z,14.84
2022-10-11T01:39:11.827Z,14.75
2022-10-11T01:42:02.187Z,14.73
2022-10-11T01:47:31.580Z,14.76
2022-10-11T01:53:50.006Z,14.74
2022-10-11T01:59:50.056Z,14.71
2022-10-11T02:05:34.753Z,14.75
2022-10-11T02:13:52.966Z,14.76
2022-10-11T02:19:29.917Z,14.65
2022-10-11T02:25:17.176Z,14.74
2022-10-11T02:30:56.284Z,14.72
2022-10-11T02:33:46.845Z,14.68
2022-10-11T02:39:29.030Z,14.72
2022-10-11T02:45:10.847Z,14.72
2022-10-11T02:50:51.713Z,14.66
2022-10-11T02:56:31.198Z,14.67
2022-10-11T02:59:25.955Z,14.62
2022-10-11T03:04:56.993Z,14.75
2022-10-11T03:10:35.628Z,14.64
2022-10-11T03:13:25.184Z,14.54
2022-10-11T03:19:05.067Z,14.54
2022-10-11T03:24:35.284Z,14.46
2022-10-11T03:30:16.198Z,14.48
2022-10-11T03:35:52.841Z,14.47
2022-10-11T03:41:28.655Z,14.45
2022-10-11T03:47:28.235Z,14.45
2022-10-11T03:50:17.669Z,14.36
2022-10-11T03:55:55.621Z,14.43
2022-10-11T04:01:45.569Z,14.33
2022-10-11T04:07:22.389Z,14.27
2022-10-11T04:13:07.171Z,14.27
2022-10-11T04:18:44.562Z,14.18
2022-10-11T04:24:23.288Z,14.15
2022-10-11T04:30:15.159Z,14.03
2022-10-11T04:35:56.410Z,13.83
2022-10-11T04:41:31.740Z,13.75
2022-10-11T04:47:08.003Z,13.76
2022-10-11T04:52:44.104Z,13.72
2022-10-11T04:58:21.845Z,13.78
2022-10-11T05:01:10.374Z,13.75
2022-10-11T05:03:59.768Z,13.66
2022-10-11T05:06:49.487Z,13.65
2022-10-11T05:12:25.158Z,13.78
2022-10-11T05:15:13.527Z,13.78
2022-10-11T05:20:46.853Z,13.88
2022-10-11T05:26:27.509Z,13.97
2022-10-11T05:29:15.785Z,13.89
2022-10-11T05:32:08.849Z,13.93
2022-10-11T05:34:59.470Z,13.99
2022-10-11T05:37:49.552Z,13.94
2022-10-11T05:40:39.634Z,13.96
2022-10-11T05:43:28.356Z,13.98
2022-10-11T05:46:17.457Z,13.97
2022-10-11T05:49:05.862Z,14.01
2022-10-11T05:51:54.256Z,14.03
2022-10-11T05:57:33.366Z,14.15
2022-10-11T06:00:26.158Z,14.15
2022-10-11T06:06:07.320Z,14.28
2022-10-11T06:11:42.491Z,14.31
2022-10-11T06:14:31.116Z,14.21
2022-10-11T06:22:54.219Z,14.36
2022-10-11T06:25:42.665Z,14.35
2022-10-11T06:31:21.985Z,14.53
2022-10-11T06:36:59.606Z,14.61
2022-10-11T06:39:48.204Z,14.63
2022-10-11T06:42:39.204Z,14.70
2022-10-11T06:48:14.978Z,14.81
2022-10-11T06:51:07.305Z,14.80
2022-10-11T06:56:45.639Z,14.93
2022-10-11T07:02:21.396Z,14.90
2022-10-11T07:07:52.515Z,14.77
2022-10-11T07:13:25.302Z,14.93
2022-10-11T07:19:15.591Z,15.19
2022-10-11T07:24:51.114Z,15.37
2022-10-11T07:30:25.056Z,15.29
2022-10-11T07:39:04.769Z,15.38
2022-10-11T07:44:43.467Z,15.77
2022-10-11T07:50:19.628Z,15.90
2022-10-11T07:56:03.411Z,16.59
2022-10-11T08:01:46.598Z,16.59
2022-10-11T08:07:23.847Z,17.02
2022-10-11T08:13:04.276Z,17.35
2022-10-11T08:18:39.541Z,17.47
2022-10-11T08:24:20.876Z,17.53
2022-10-11T08:29:57.539Z,17.13
2022-10-11T08:32:45.782Z,17.31
2022-10-11T08:38:33.236Z,17.21
2022-10-11T08:44:41.553Z,17.48
2022-10-11T08:50:16.991Z,17.23
2022-10-11T08:56:01.187Z,17.36
2022-10-11T08:58:52.595Z,17.21
2022-10-11T09:01:44.163Z,17.12
2022-10-11T09:04:32.908Z,17.08
2022-10-11T09:07:26.400Z,17.13
2022-10-11T09:10:36.174Z,17.12
2022-10-11T09:13:37.014Z,17.39
2022-10-11T09:16:29.891Z,17.74
2022-10-11T09:22:15.808Z,17.93
2022-10-11T09:25:19.215Z,17.87
2022-10-11T09:31:03.729Z,17.79
2022-10-11T09:33:53.548Z,17.80
2022-10-11T09:45:00.609Z,17.98
2022-10-11T09:50:39.754Z,18.42
2022-10-11T09:56:31.335Z,18.53
2022-10-11T09:59:31.614Z,18.59
2022-10-11T10:02:24.707Z,18.59
2022-10-11T10:05:19.541Z,18.30
2022-10-11T10:11:06.739Z,18.42
2022-10-11T10:16:43.814Z,18.23
2022-10-11T10:25:11.851Z,18.50
2022-10-11T10:33:38.036Z,18.46
2022-10-11T10:36:29.778Z,18.37
2022-10-11T10:39:21.786Z,18.57
2022-10-11T10:45:02.273Z,18.70
2022-10-11T10:48:00.356Z,18.46
2022-10-11T10:50:55.756Z,18.66
2022-10-11T10:53:46.294Z,18.65
2022-10-11T10:56:38.984Z,18.92
2022-10-11T11:05:28.196Z,19.92
2022-10-11T11:08:22.420Z,19.83
2022-10-11T11:14:25.459Z,19.50
2022-10-11T11:20:21.515Z,19.83
2022-10-11T11:29:08.055Z,19.84
2022-10-11T11:35:09.527Z,19.38
2022-10-11T11:38:06.512Z,19.07
2022-10-11T11:40:56.941Z,18.99
2022-10-11T11:43:54.430Z,19.25
2022-10-11T11:49:35.910Z,19.65
2022-10-11T11:55:15.107Z,19.78
2022-10-11T12:00:58.722Z,20.18
2022-10-11T12:03:49.019Z,20.28
2022-10-11T12:09:24.698Z,20.25
2022-10-11T12:15:25.341Z,20.18
2022-10-11T12:21:09.322Z,20.07
2022-10-11T12:26:46.589Z,20.19
2022-10-11T12:32:59.637Z,20.19
2022-10-11T12:39:35.363Z,20.20
2022-10-11T12:48:45.962Z,19.99
2022-10-11T12:54:38.331Z,20.07
2022-10-11T13:00:43.665Z,19.71
2022-10-11T13:06:19.358Z,20.08
2022-10-11T13:14:44.713Z,20.04
2022-10-11T13:20:27.806Z,20.39
2022-10-11T13:26:11.126Z,20.56
2022-10-11T13:31:43.002Z,20.11
2022-10-11T13:34:35.270Z,19.75
2022-10-11T13:40:07.911Z,20.14
2022-10-11T13:45:58.412Z,20.61
2022-10-11T13:48:46.995Z,20.44
2022-10-11T13:51:37.460Z,20.25
2022-10-11T13:54:26.151Z,20.35
2022-10-11T14:00:11.403Z,19.85
2022-10-11T14:03:05.270Z,19.77
2022-10-11T14:05:58.022Z,19.79
2022-10-11T14:08:47.875Z,19.80
2022-10-11T14:11:38.290Z,19.83
2022-10-11T14:17:41.790Z,20.06
2022-10-11T14:20:38.435Z,19.99
2022-10-11T14:26:18.672Z,20.10
2022-10-11T14:31:49.458Z,20.15
2022-10-11T14:34:37.732Z,19.93
2022-10-11T14:40:21.488Z,20.10
2022-10-11T14:43:09.566Z,20.15
2022-10-11T14:48:56.508Z,19.92
2022-10-11T14:54:31.301Z,19.77
2022-10-11T14:57:19.795Z,19.50
2022-10-11T15:00:13.677Z,19.68
2022-10-11T15:05:50.241Z,19.49
2022-10-11T15:11:23.786Z,19.29
2022-10-11T15:14:11.990Z,19.27
2022-10-11T15:17:02.572Z,19.27
2022-10-11T15:22:44.389Z,19.03
2022-10-11T15:31:05.277Z,18.76
2022-10-11T15:33:53.602Z,18.70
2022-10-11T15:39:32.504Z,18.65
2022-10-11T15:45:18.982Z,18.75
2022-10-11T15:50:51.983Z,18.65
2022-10-11T15:56:24.986Z,18.60
2022-10-11T16:02:00.611Z,18.66
2022-10-11T16:04:49.729Z,18.64
2022-10-11T16:07:38.384Z,18.49
2022-10-11T16:13:07.721Z,18.30
2022-10-11T16:15:56.363Z,18.15
2022-10-11T16:18:44.899Z,18.03
2022-10-11T16:24:28.107Z,17.96
2022-10-11T16:30:23.126Z,17.76
2022-10-11T16:36:30.262Z,17.58
2022-10-11T16:42:02.659Z,17.36
2022-10-11T16:44:52.979Z,17.13
2022-10-11T16:47:41.928Z,17.06
2022-10-11T16:53:15.528Z,16.99
2022-10-11T16:56:08.210Z,16.97
2022-10-11T17:01:57.736Z,16.69
2022-10-11T17:07:25.875Z,16.80
2022-10-11T17:10:17.088Z,16.63
2022-10-11T17:13:05.259Z,16.49
2022-10-11T17:15:53.920Z,16.47
2022-10-11T17:24:06.957Z,16.30
2022-10-11T17:26:56.015Z,16.19
2022-10-11T17:29:44.392Z,16.21
2022-10-11T17:35:12.941Z,16.28
2022-10-11T17:38:05.916Z,16.19
2022-10-11T17:43:48.676Z,16.08
2022-10-11T17:49:25.814Z,16.08
2022-10-11T17:55:00.198Z,15.98
2022-10-11T17:57:49.577Z,15.81
2022-10-11T18:00:38.242Z,15.82
2022-10-11T18:13:35.697Z,15.65
2022-10-11T18:16:26.802Z,15.62
2022-10-11T18:22:07.152Z,15.65
2022-10-11T18:24:54.449Z,15.67
2022-10-11T18:30:29.872Z,15.53
2022-10-11T18:36:04.942Z,15.50
2022-10-11T18:38:56.161Z,15.49
2022-10-11T18:44:33.100Z,15.33
2022-10-11T18:50:11.343Z,15.37
2022-10-11T18:53:00.566Z,15.29
2022-10-11T18:55:50.021Z,15.20
2022-10-11T19:01:32.791Z,15.19
2022-10-11T19:07:06.172Z,15.32
2022-10-11T19:09:55.848Z,15.14
2022-10-11T19:15:37.296Z,15.08
2022-10-11T19:18:29.511Z,15.06
2022-10-11T19:24:09.435Z,15.17
2022-10-11T19:29:39.138Z,15.21
2022-10-11T19:41:18.203Z,14.93
2022-10-11T19:46:51.950Z,14.84
2022-10-11T19:52:22.909Z,14.77
2022-10-11T19:58:25.805Z,14.46
2022-10-11T20:01:17.837Z,14.40
2022-10-11T20:07:14.741Z,14.30
2022-10-11T20:10:05.577Z,14.26
2022-10-11T20:15:41.059Z,14.22
2022-10-11T20:18:31.285Z,14.19
2022-10-11T20:24:13.888Z,14.17
2022-10-11T20:30:04.265Z,14.06
2022-10-11T20:32:57.704Z,14.01
2022-10-11T20:35:46.796Z,13.91
2022-10-11T20:41:28.785Z,14.00
2022-10-11T20:47:17.421Z,13.94
2022-10-11T20:50:10.154Z,14.02
2022-10-11T20:52:59.292Z,14.19
2022-10-11T20:58:41.762Z,14.16
2022-10-11T21:01:32.200Z,14.03
2022-10-11T21:07:23.918Z,14.06
2022-10-11T21:13:12.258Z,14.00
2022-10-11T21:16:06.725Z,13.89
2022-10-11T21:18:56.670Z,14.09
2022-10-11T21:24:32.217Z,14.13
2022-10-11T21:30:10.242Z,13.92
2022-10-11T21:35:49.205Z,13.81
2022-10-11T21:44:11.820Z,13.85
2022-10-11T21:49:48.589Z,13.74
2022-10-11T21:52:37.110Z,13.71
2022-10-11T21:55:26.835Z,13.63
2022-10-11T21:58:15.866Z,13.57
2022-10-11T22:04:05.545Z,13.64
2022-10-11T22:09:43.198Z,13.38
2022-10-11T22:12:31.480Z,13.29
2022-10-11T22:18:08.562Z,13.39
2022-10-11T22:23:51.716Z,13.39
2022-10-11T22:29:34.222Z,13.30
2022-10-11T22:37:45.912Z,13.26
2022-10-11T22:43:24.948Z,13.13
2022-10-11T22:48:58.781Z,13.22
2022-10-11T22:54:34.437Z,13.18
2022-10-11T23:00:06.888Z,13.37
2022-10-11T23:05:59.172Z,13.45
2022-10-11T23:08:47.203Z,13.11
2022-10-11T23:14:23.918Z,13.21
2022-10-11T23:20:17.447Z,13.11
2022-10-11T23:25:50.716Z,13.24
2022-10-11T23:31:28.058Z,13.15
2022-10-11T23:37:06.362Z,13.10
2022-10-11T23:42:41.182Z,13.10
2022-10-11T23:48:11.664Z,13.03
2022-10-11T23:53:45.105Z,12.83
2022-10-11T23:59:19.460Z,12.93
